createdAt,value
2022-12-08T00:01:23.438Z,8.50
2022-12-08T00:03:50.531Z,8.50
2022-12-08T00:06:46.120Z,8.40
2022-12-08T00:09:23.696Z,8.50
2022-12-08T00:11:53.242Z,8.50
2022-12-08T00:14:20.267Z,8.30
2022-12-08T00:16:47.076Z,8.40
2022-12-08T00:19:13.838Z,8.20
2022-12-08T00:21:40.662Z,8.20
2022-12-08T00:24:07.635Z,8.00
2022-12-08T00:26:34.321Z,8.10
2022-12-08T00:29:00.956Z,7.80
2022-12-08T00:31:27.670Z,7.60
2022-12-08T00:33:54.336Z,7.70
2022-12-08T00:36:21.378Z,7.70
2022-12-08T00:38:48.690Z,7.60
2022-12-08T00:41:16.139Z,7.80
2022-12-08T00:43:42.943Z,7.60
2022-12-08T00:46:09.776Z,7.50
2022-12-08T00:48:36.611Z,7.60
2022-12-08T00:51:03.446Z,7.90
2022-12-08T00:53:30.623Z,8.10
2022-12-08T00:55:57.254Z,8.00
2022-12-08T00:58:23.937Z,8.00
2022-12-08T01:00:50.743Z,8.10
2022-12-08T01:03:17.620Z,7.90
2022-12-08T01:05:44.630Z,8.10
2022-12-08T01:08:11.372Z,8.10
2022-12-08T01:10:38.378Z,8.00
2022-12-08T01:13:04.998Z,8.10
2022-12-08T01:15:31.696Z,8.20
2022-12-08T01:17:58.376Z,8.20
2022-12-08T01:20:25.002Z,8.10
2022-12-08T01:22:51.611Z,8.10
2022-12-08T01:25:18.594Z,8.10
2022-12-08T01:27:45.238Z,8.10
2022-12-08T01:30:13.346Z,7.90
2022-12-08T01:32:40.078Z,8.10
2022-12-08T01:35:06.962Z,8.00
2022-12-08T01:37:33.748Z,7.90
2022-12-08T01:40:00.375Z,7.90
2022-12-08T01:42:27.097Z,7.90
2022-12-08T01:44:55.152Z,8.00
2022-12-08T01:47:22.602Z,8.00
2022-12-08T01:49:49.298Z,8.10
2022-12-08T01:52:15.933Z,8.00
2022-12-08T01:54:53.664Z,8.10
2022-12-08T01:57:25.020Z,8.00
2022-12-08T01:59:54.602Z,7.80
2022-12-08T02:02:21.304Z,7.80
2022-12-08T02:04:48.062Z,7.80
2022-12-08T02:07:14.753Z,7.80
2022-12-08T02:09:41.432Z,7.80
2022-12-08T02:12:08.301Z,7.90
2022-12-08T02:14:34.955Z,7.90
2022-12-08T02:17:06.446Z,7.90
2022-12-08T02:20:02.710Z,7.80
2022-12-08T02:22:38.760Z,7.70
2022-12-08T02:25:08.455Z,7.90
2022-12-08T02:27:47.660Z,7.90
2022-12-08T02:30:17.436Z,7.90
2022-12-08T02:32:47.170Z,7.40
2022-12-08T02:35:13.779Z,7.20
2022-12-08T02:38:07.062Z,7.30
2022-12-08T02:40:36.306Z,7.60
2022-12-08T02:43:07.789Z,7.70
2022-12-08T02:45:36.476Z,7.70
2022-12-08T02:48:03.199Z,7.40
2022-12-08T02:50:29.908Z,7.50
2022-12-08T02:52:56.524Z,7.60
2022-12-08T02:55:23.384Z,7.70
2022-12-08T02:57:50.099Z,7.80
2022-12-08T03:00:17.413Z,7.60
2022-12-08T03:02:44.186Z,7.60
2022-12-08T03:05:13.899Z,7.60
2022-12-08T03:07:58.993Z,7.60
2022-12-08T03:10:36.126Z,7.70
2022-12-08T03:13:04.701Z,7.90
2022-12-08T03:15:31.481Z,7.90
2022-12-08T03:17:58.508Z,8.00
2022-12-08T03:20:25.520Z,7.90
2022-12-08T03:22:52.961Z,7.90
2022-12-08T03:25:23.496Z,7.90
2022-12-08T03:27:50.620Z,8.10
2022-12-08T03:30:17.403Z,8.00
2022-12-08T03:32:47.801Z,8.00
2022-12-08T03:35:15.419Z,7.60
2022-12-08T03:37:45.386Z,7.50
2022-12-08T03:40:13.081Z,7.50
2022-12-08T03:42:39.925Z,7.20
2022-12-08T03:45:06.867Z,7.10
2022-12-08T03:47:33.661Z,7.30
2022-12-08T03:50:00.532Z,7.30
2022-12-08T03:52:27.267Z,7.60
2022-12-08T03:54:53.984Z,7.60
2022-12-08T03:57:21.692Z,7.90
2022-12-08T03:59:48.340Z,7.90
2022-12-08T04:02:15.082Z,7.90
2022-12-08T04:04:41.828Z,7.90
2022-12-08T04:07:08.455Z,7.90
2022-12-08T04:09:35.070Z,7.90
2022-12-08T04:12:01.731Z,8.00
2022-12-08T04:14:28.471Z,8.10
2022-12-08T04:16:55.212Z,8.00
2022-12-08T04:19:21.985Z,7.70
2022-12-08T04:21:48.836Z,7.90
2022-12-08T04:24:15.848Z,7.90
2022-12-08T04:26:42.584Z,7.90
2022-12-08T04:29:09.213Z,8.00
2022-12-08T04:31:35.994Z,8.00
2022-12-08T04:34:02.754Z,8.10
2022-12-08T04:36:29.474Z,8.20
2022-12-08T04:38:56.158Z,8.20
2022-12-08T04:41:22.895Z,8.20
2022-12-08T04:43:49.537Z,7.90
2022-12-08T04:46:16.262Z,7.70
2022-12-08T04:48:43.008Z,7.90
2022-12-08T04:51:19.671Z,8.10
2022-12-08T04:53:47.064Z,8.00
2022-12-08T04:56:14.576Z,8.00
2022-12-08T04:58:41.502Z,7.90
2022-12-08T05:01:08.249Z,8.00
2022-12-08T05:03:34.918Z,8.00
2022-12-08T05:06:02.134Z,8.10
2022-12-08T05:08:29.483Z,8.10
2022-12-08T05:11:02.993Z,8.10
2022-12-08T05:13:30.048Z,8.00
2022-12-08T05:16:02.533Z,7.90
2022-12-08T05:18:29.241Z,7.90
2022-12-08T05:20:55.914Z,7.90
2022-12-08T05:23:22.609Z,8.00
2022-12-08T05:25:49.277Z,8.10
2022-12-08T05:28:40.227Z,8.10
2022-12-08T05:31:02.774Z,8.10
2022-12-08T05:33:29.530Z,8.20
2022-12-08T05:35:56.190Z,8.10
2022-12-08T05:38:22.871Z,8.10
2022-12-08T05:40:49.717Z,8.10
2022-12-08T05:43:16.459Z,8.20
2022-12-08T05:45:43.144Z,8.30
2022-12-08T05:48:09.844Z,8.20
2022-12-08T05:50:36.610Z,8.00
2022-12-08T05:53:03.375Z,7.90
2022-12-08T05:55:30.036Z,8.00
2022-12-08T05:57:56.784Z,8.10
2022-12-08T06:00:23.583Z,8.10
2022-12-08T06:02:50.616Z,8.00
2022-12-08T06:05:17.458Z,8.00
2022-12-08T06:07:44.239Z,8.00
2022-12-08T06:10:11.182Z,7.90
2022-12-08T06:12:37.823Z,8.00
2022-12-08T06:15:04.693Z,8.10
2022-12-08T06:17:31.464Z,8.20
2022-12-08T06:19:58.145Z,8.20
2022-12-08T06:22:24.901Z,8.20
2022-12-08T06:24:51.624Z,7.90
2022-12-08T06:27:18.571Z,8.00
2022-12-08T06:29:45.283Z,8.00
2022-12-08T06:32:11.982Z,7.90
2022-12-08T06:34:38.774Z,8.10
2022-12-08T06:37:05.427Z,8.10
2022-12-08T06:39:32.110Z,8.10
2022-12-08T06:42:17.633Z,8.10
2022-12-08T06:44:44.423Z,8.00
2022-12-08T06:47:11.147Z,7.60
2022-12-08T06:49:37.807Z,7.60
2022-12-08T06:52:04.455Z,7.80
2022-12-08T06:54:31.076Z,7.90
2022-12-08T06:56:57.750Z,7.80
2022-12-08T06:59:26.161Z,7.80
2022-12-08T07:01:52.934Z,7.70
2022-12-08T07:04:19.723Z,7.70
2022-12-08T07:06:46.406Z,7.80
2022-12-08T07:09:13.117Z,7.80
2022-12-08T07:11:39.907Z,8.00
2022-12-08T07:14:06.647Z,7.90
2022-12-08T07:16:33.338Z,7.60
2022-12-08T07:19:00.456Z,7.80
2022-12-08T07:21:27.146Z,7.90
2022-12-08T07:23:57.632Z,7.90
2022-12-08T07:26:24.935Z,8.00
2022-12-08T07:28:51.668Z,8.00
2022-12-08T07:31:22.044Z,8.00
2022-12-08T07:33:48.988Z,8.00
2022-12-08T07:36:15.711Z,7.90
2022-12-08T07:38:42.727Z,8.00
2022-12-08T07:41:15.745Z,8.00
2022-12-08T07:43:42.488Z,8.00
2022-12-08T07:46:11.612Z,8.00
2022-12-08T07:48:38.381Z,8.00
2022-12-08T07:51:05.219Z,8.00
2022-12-08T07:53:31.939Z,8.10
2022-12-08T07:55:58.658Z,7.90
2022-12-08T07:58:25.792Z,7.90
2022-12-08T08:00:52.606Z,8.00
2022-12-08T08:03:19.400Z,8.00
2022-12-08T08:05:48.300Z,8.10
2022-12-08T08:08:15.105Z,8.10
2022-12-08T08:10:41.812Z,8.10
2022-12-08T08:13:08.688Z,8.10
2022-12-08T08:15:35.671Z,8.20
2022-12-08T08:18:02.580Z,8.30
2022-12-08T08:20:29.329Z,8.40
2022-12-08T08:22:56.359Z,8.30
2022-12-08T08:25:23.469Z,8.30
2022-12-08T08:27:50.360Z,8.30
2022-12-08T08:30:20.766Z,8.30
2022-12-08T08:32:48.295Z,8.40
2022-12-08T08:35:14.966Z,8.30
2022-12-08T08:37:45.712Z,8.40
2022-12-08T08:40:13.990Z,8.40
2022-12-08T08:42:40.754Z,8.20
2022-12-08T08:45:07.910Z,7.90
2022-12-08T08:47:34.604Z,8.20
2022-12-08T08:50:01.255Z,8.20
2022-12-08T08:52:27.966Z,8.10
2022-12-08T08:54:54.642Z,8.20
2022-12-08T08:57:25.471Z,8.30
2022-12-08T08:59:53.027Z,8.30
2022-12-08T09:02:19.952Z,8.40
2022-12-08T09:04:47.069Z,8.40
2022-12-08T09:07:13.887Z,8.40
2022-12-08T09:09:40.779Z,8.40
2022-12-08T09:12:07.648Z,8.50
2022-12-08T09:14:34.365Z,8.40
2022-12-08T09:17:01.208Z,8.50
2022-12-08T09:19:27.964Z,8.50
2022-12-08T09:21:55.039Z,8.60
2022-12-08T09:24:23.195Z,8.50
2022-12-08T09:26:50.373Z,8.50
2022-12-08T09:29:17.728Z,8.20
2022-12-08T09:31:44.523Z,7.90
2022-12-08T09:34:11.781Z,7.70
2022-12-08T09:36:38.558Z,8.00
2022-12-08T09:39:05.249Z,8.20
2022-12-08T09:41:40.356Z,8.30
2022-12-08T09:44:33.996Z,8.30
2022-12-08T09:47:00.722Z,8.40
2022-12-08T09:49:34.128Z,8.30
2022-12-08T09:52:00.868Z,8.40
2022-12-08T09:54:32.005Z,8.30
2022-12-08T09:56:59.304Z,8.20
2022-12-08T09:59:25.989Z,8.40
2022-12-08T10:01:52.813Z,8.40
2022-12-08T10:04:19.546Z,8.20
2022-12-08T10:06:58.031Z,8.30
2022-12-08T10:09:24.885Z,8.60
2022-12-08T10:11:53.861Z,8.60
2022-12-08T10:14:25.871Z,8.50
2022-12-08T10:16:53.340Z,8.40
2022-12-08T10:19:20.628Z,8.40
2022-12-08T10:21:47.378Z,7.80
2022-12-08T10:24:34.000Z,7.70
2022-12-08T10:27:01.548Z,7.60
2022-12-08T10:29:28.188Z,7.30
2022-12-08T10:31:56.185Z,7.40
2022-12-08T10:34:26.100Z,7.20
2022-12-08T10:36:53.951Z,7.20
2022-12-08T10:39:49.923Z,7.00
2022-12-08T10:42:17.841Z,7.00
2022-12-08T10:44:53.666Z,6.80
2022-12-08T10:47:24.009Z,6.90
2022-12-08T10:50:06.455Z,6.90
2022-12-08T10:52:33.406Z,6.90
2022-12-08T10:55:00.123Z,7.10
2022-12-08T10:57:26.762Z,7.30
2022-12-08T10:59:56.952Z,7.40
2022-12-08T11:02:24.024Z,8.00
2022-12-08T11:04:56.425Z,7.70
2022-12-08T11:07:23.141Z,8.10
2022-12-08T11:09:50.799Z,8.40
2022-12-08T11:12:20.722Z,8.50
2022-12-08T11:14:48.270Z,8.40
2022-12-08T11:17:16.108Z,8.60
2022-12-08T11:19:43.904Z,8.50
2022-12-08T11:22:25.241Z,8.60
2022-12-08T11:25:12.296Z,8.40
2022-12-08T11:27:40.086Z,8.40
2022-12-08T11:30:14.818Z,8.50
2022-12-08T11:32:42.748Z,8.40
2022-12-08T11:35:09.688Z,8.50
2022-12-08T11:37:37.859Z,8.20
2022-12-08T11:40:08.676Z,8.20
2022-12-08T11:42:37.880Z,8.30
2022-12-08T11:45:07.971Z,8.50
2022-12-08T11:47:35.753Z,8.60
2022-12-08T11:50:04.089Z,8.60
2022-12-08T11:52:32.651Z,8.60
2022-12-08T11:55:04.539Z,8.70
2022-12-08T11:57:31.360Z,9.10
2022-12-08T11:59:58.252Z,9.50
2022-12-08T12:02:28.984Z,10.30
2022-12-08T12:05:09.389Z,10.50
2022-12-08T12:07:39.130Z,10.70
2022-12-08T12:10:17.813Z,11.30
2022-12-08T12:13:03.351Z,10.90
2022-12-08T12:15:51.196Z,10.80
2022-12-08T12:18:27.615Z,10.50
2022-12-08T12:21:16.937Z,10.40
2022-12-08T12:23:48.432Z,10.10
2022-12-08T12:26:18.994Z,9.80
2022-12-08T12:28:52.621Z,10.10
2022-12-08T12:31:20.254Z,10.30
2022-12-08T12:33:46.994Z,10.20
2022-12-08T12:36:13.915Z,10.10
2022-12-08T12:39:07.763Z,10.10
2022-12-08T12:41:36.181Z,10.00
2022-12-08T12:44:09.183Z,10.10
2022-12-08T12:46:40.386Z,10.10
2022-12-08T12:49:27.032Z,10.20
2022-12-08T12:51:56.542Z,9.70
2022-12-08T12:54:25.587Z,9.40
2022-12-08T12:56:55.876Z,9.40
2022-12-08T12:59:42.546Z,9.80
2022-12-08T13:02:32.580Z,9.00
2022-12-08T13:04:59.297Z,9.40
2022-12-08T13:07:27.056Z,9.30
2022-12-08T13:10:23.225Z,9.70
2022-12-08T13:13:02.067Z,10.20
2022-12-08T13:15:33.481Z,10.50
2022-12-08T13:18:00.164Z,10.20
2022-12-08T13:20:26.859Z,9.80
2022-12-08T13:22:53.565Z,9.60
2022-12-08T13:25:39.108Z,9.20
2022-12-08T13:28:24.831Z,9.00
2022-12-08T13:30:58.400Z,8.80
2022-12-08T13:33:25.122Z,9.20
2022-12-08T13:35:53.835Z,9.40
2022-12-08T13:38:20.876Z,9.40
2022-12-08T13:40:48.279Z,9.60
2022-12-08T13:43:44.664Z,9.60
2022-12-08T13:47:03.149Z,9.50
2022-12-08T13:50:47.878Z,9.40
2022-12-08T13:57:36.448Z,9.50
2022-12-08T14:00:29.471Z,9.60
2022-12-08T14:02:57.264Z,9.80
2022-12-08T14:05:41.129Z,9.80
2022-12-08T14:08:50.950Z,9.80
2022-12-08T14:11:09.305Z,9.70
2022-12-08T14:13:35.989Z,9.70
2022-12-08T14:16:02.814Z,9.70
2022-12-08T14:18:30.464Z,9.70
2022-12-08T14:21:20.252Z,9.60
2022-12-08T14:23:47.511Z,9.70
2022-12-08T14:26:14.240Z,9.80
2022-12-08T14:28:44.817Z,9.80
2022-12-08T14:31:14.088Z,9.70
2022-12-08T14:33:40.896Z,9.60
2022-12-08T14:36:08.652Z,9.40
2022-12-08T14:38:35.424Z,9.10
2022-12-08T14:41:08.921Z,9.20
2022-12-08T14:43:35.724Z,9.30
2022-12-08T14:46:03.369Z,9.40
2022-12-08T14:48:39.156Z,9.30
2022-12-08T14:51:08.913Z,9.50
2022-12-08T14:53:37.990Z,9.40
2022-12-08T14:56:23.590Z,9.30
2022-12-08T14:58:51.231Z,9.40
2022-12-08T15:01:21.365Z,9.30
2022-12-08T15:03:51.139Z,9.40
2022-12-08T15:06:19.766Z,9.30
2022-12-08T15:08:53.876Z,8.90
2022-12-08T15:11:23.598Z,9.10
2022-12-08T15:13:50.971Z,9.20
2022-12-08T15:16:27.141Z,9.20
2022-12-08T15:19:06.221Z,9.20
2022-12-08T15:21:34.692Z,9.30
2022-12-08T15:24:01.339Z,9.30
2022-12-08T15:26:28.169Z,9.00
2022-12-08T15:28:54.884Z,9.00
2022-12-08T15:31:21.873Z,8.70
2022-12-08T15:33:48.585Z,8.90
2022-12-08T15:36:15.198Z,8.80
2022-12-08T15:38:41.940Z,8.60
2022-12-08T15:41:13.095Z,8.70
2022-12-08T15:43:41.739Z,8.60
2022-12-08T15:46:08.466Z,8.60
2022-12-08T15:48:36.803Z,8.70
2022-12-08T15:51:03.550Z,8.50
2022-12-08T15:53:30.264Z,8.60
2022-12-08T15:56:26.883Z,8.70
2022-12-08T15:58:59.239Z,8.80
2022-12-08T16:01:26.495Z,9.00
2022-12-08T16:09:34.600Z,9.00
2022-12-08T16:12:20.392Z,9.00
2022-12-08T16:15:49.634Z,9.00
2022-12-08T16:17:33.947Z,9.00
2022-12-08T16:20:01.002Z,9.10
2022-12-08T16:25:18.890Z,8.70
2022-12-08T16:28:23.372Z,9.00
2022-12-08T16:30:34.028Z,9.00
2022-12-08T16:33:00.829Z,9.00
2022-12-08T16:35:27.530Z,9.20
2022-12-08T16:37:54.271Z,9.10
2022-12-08T16:40:21.073Z,9.00
2022-12-08T16:42:48.581Z,9.20
2022-12-08T16:45:19.685Z,9.30
2022-12-08T16:47:50.089Z,8.80
2022-12-08T16:50:17.889Z,9.00
2022-12-08T16:52:44.665Z,9.00
2022-12-08T16:55:12.096Z,9.20
2022-12-08T16:57:38.920Z,9.20
2022-12-08T17:00:06.693Z,9.10
2022-12-08T17:02:33.945Z,9.10
2022-12-08T17:05:00.777Z,8.80
2022-12-08T17:07:27.734Z,8.80
2022-12-08T17:09:54.463Z,8.90
2022-12-08T17:12:21.161Z,8.70
2022-12-08T17:14:47.795Z,8.60
2022-12-08T17:17:14.543Z,8.50
2022-12-08T17:19:41.218Z,8.70
2022-12-08T17:22:07.885Z,8.80
2022-12-08T17:24:34.608Z,8.80
2022-12-08T17:27:04.419Z,8.90
2022-12-08T17:29:31.529Z,9.10
2022-12-08T17:31:58.445Z,9.20
2022-12-08T17:34:25.204Z,9.00
2022-12-08T17:36:51.882Z,9.00
2022-12-08T17:39:19.239Z,9.00
2022-12-08T17:41:46.261Z,8.90
2022-12-08T17:44:13.729Z,9.00
2022-12-08T17:46:43.461Z,9.10
2022-12-08T17:49:22.084Z,9.20
2022-12-08T17:51:49.339Z,9.30
2022-12-08T17:54:16.544Z,9.30
2022-12-08T17:56:43.325Z,9.20
2022-12-08T17:59:10.432Z,9.30
2022-12-08T18:01:37.181Z,9.30
2022-12-08T18:04:04.301Z,9.20
2022-12-08T18:06:31.441Z,9.10
2022-12-08T18:08:58.397Z,9.20
2022-12-08T18:11:25.218Z,9.20
2022-12-08T18:13:52.622Z,9.20
2022-12-08T18:16:20.049Z,9.20
2022-12-08T18:18:46.988Z,9.30
2022-12-08T18:21:16.352Z,9.20
2022-12-08T18:23:48.238Z,9.20
2022-12-08T18:26:15.045Z,9.00
2022-12-08T18:28:41.696Z,8.90
2022-12-08T18:31:09.782Z,8.80
2022-12-08T18:33:36.932Z,9.00
2022-12-08T18:36:06.615Z,8.90
2022-12-08T18:38:33.606Z,8.70
2022-12-08T18:41:07.507Z,8.70
2022-12-08T18:43:34.235Z,8.90
2022-12-08T18:46:01.668Z,9.00
2022-12-08T18:48:28.333Z,8.90
2022-12-08T18:50:55.046Z,8.90
2022-12-08T18:53:21.941Z,8.70
2022-12-08T18:55:50.927Z,8.50
2022-12-08T18:58:17.895Z,8.50
2022-12-08T19:00:44.672Z,8.60
2022-12-08T19:03:11.393Z,8.80
2022-12-08T19:05:38.233Z,8.80
2022-12-08T19:08:04.968Z,9.10
2022-12-08T19:10:32.254Z,9.10
2022-12-08T19:12:58.900Z,9.10
2022-12-08T19:15:25.604Z,9.10
2022-12-08T19:17:52.276Z,9.20
2022-12-08T19:20:19.009Z,9.10
2022-12-08T19:22:45.802Z,9.10
2022-12-08T19:25:12.488Z,9.00
2022-12-08T19:27:39.174Z,8.90
2022-12-08T19:30:06.721Z,9.00
2022-12-08T19:32:34.446Z,8.90
2022-12-08T19:35:01.173Z,8.80
2022-12-08T19:37:27.880Z,8.80
2022-12-08T19:40:13.271Z,8.80
2022-12-08T19:42:58.418Z,9.00
2022-12-08T19:45:25.770Z,8.90
2022-12-08T19:47:52.457Z,9.00
2022-12-08T19:50:37.384Z,9.00
2022-12-08T19:53:04.890Z,8.90
2022-12-08T19:55:31.657Z,8.80
2022-12-08T19:57:58.512Z,8.80
2022-12-08T20:00:25.300Z,8.60
2022-12-08T20:02:52.083Z,8.60
2022-12-08T20:05:18.853Z,8.80
2022-12-08T20:07:45.634Z,8.70
2022-12-08T20:10:14.945Z,8.80
2022-12-08T20:12:41.650Z,8.80
2022-12-08T20:15:09.800Z,9.00
2022-12-08T20:17:39.300Z,8.80
2022-12-08T20:20:07.580Z,8.80
2022-12-08T20:22:34.823Z,9.00
2022-12-08T20:25:01.817Z,9.10
2022-12-08T20:27:29.170Z,9.20
2022-12-08T20:29:56.047Z,9.20
2022-12-08T20:32:22.862Z,9.20
2022-12-08T20:34:49.561Z,9.00
2022-12-08T20:37:16.260Z,8.80
2022-12-08T20:39:42.893Z,8.80
2022-12-08T20:42:12.259Z,9.00
2022-12-08T20:44:43.395Z,8.90
2022-12-08T20:47:11.044Z,8.60
2022-12-08T20:49:37.915Z,8.50
2022-12-08T20:52:04.694Z,8.50
2022-12-08T20:54:31.405Z,8.50
2022-12-08T20:56:58.156Z,8.50
2022-12-08T20:59:26.440Z,8.60
2022-12-08T21:01:53.561Z,8.50
2022-12-08T21:04:20.671Z,8.50
2022-12-08T21:06:47.502Z,8.60
2022-12-08T21:09:14.496Z,8.80
2022-12-08T21:11:41.373Z,8.70
2022-12-08T21:14:08.277Z,8.50
2022-12-08T21:16:35.183Z,8.60
2022-12-08T21:19:02.066Z,8.60
2022-12-08T21:21:28.815Z,8.80
2022-12-08T21:23:55.596Z,8.70
2022-12-08T21:26:23.374Z,8.80
2022-12-08T21:28:50.150Z,8.90
2022-12-08T21:31:17.607Z,8.90
2022-12-08T21:33:44.797Z,8.90
2022-12-08T21:36:12.385Z,8.90
2022-12-08T21:38:39.462Z,8.90
2022-12-08T21:41:07.254Z,8.90
2022-12-08T21:43:34.201Z,8.90
2022-12-08T21:46:01.121Z,8.90
2022-12-08T21:48:29.998Z,9.00
2022-12-08T21:50:56.822Z,9.10
2022-12-08T21:53:26.511Z,9.00
2022-12-08T21:55:53.284Z,9.10
2022-12-08T21:58:20.092Z,9.10
2022-12-08T22:00:47.077Z,9.00
2022-12-08T22:03:14.388Z,8.90
2022-12-08T22:05:41.803Z,8.80
2022-12-08T22:08:11.211Z,8.80
2022-12-08T22:10:38.391Z,8.70
2022-12-08T22:13:05.289Z,8.70
2022-12-08T22:15:32.774Z,8.70
2022-12-08T22:17:59.979Z,8.70
2022-12-08T22:20:27.062Z,8.60
2022-12-08T22:22:53.827Z,8.60
2022-12-08T22:25:20.439Z,8.80
2022-12-08T22:27:47.127Z,8.90
2022-12-08T22:30:13.954Z,8.70
2022-12-08T22:32:41.912Z,8.60
2022-12-08T22:35:09.263Z,8.60
2022-12-08T22:37:35.907Z,8.60
2022-12-08T22:40:02.633Z,8.70
2022-12-08T22:42:29.714Z,8.60
2022-12-08T22:44:56.350Z,8.50
2022-12-08T22:47:23.001Z,8.50
2022-12-08T22:49:49.650Z,8.50
2022-12-08T22:52:16.278Z,8.70
2022-12-08T22:54:43.169Z,8.60
2022-12-08T22:57:10.255Z,8.60
2022-12-08T22:59:39.358Z,8.60
2022-12-08T23:02:06.390Z,8.40
2022-12-08T23:04:33.186Z,8.20
2022-12-08T23:07:00.207Z,8.40
2022-12-08T23:09:26.901Z,8.50
2022-12-08T23:11:53.750Z,8.50
2022-12-08T23:14:20.757Z,8.60
2022-12-08T23:16:47.776Z,8.40
2022-12-08T23:19:16.996Z,8.60
2022-12-08T23:21:47.100Z,8.60
2022-12-08T23:24:13.803Z,8.60
2022-12-08T23:26:40.625Z,8.30
2022-12-08T23:29:07.353Z,8.00
2022-12-08T23:31:34.112Z,7.60
2022-12-08T23:34:02.043Z,7.60
2022-12-08T23:36:28.795Z,7.60
2022-12-08T23:38:55.594Z,7.80
2022-12-08T23:41:22.571Z,7.40
2022-12-08T23:43:49.939Z,7.50
2022-12-08T23:46:17.730Z,7.40
2022-12-08T23:48:44.693Z,7.80
2022-12-08T23:51:11.665Z,7.90
2022-12-08T23:53:38.505Z,8.20
2022-12-08T23:56:06.197Z,8.20
2022-12-08T23:58:32.966Z,8.00
